sensor_id;sensor_type;location;lat;lon;timestamp;P1;durP1;ratioP1;P2;durP2;ratioP2
32934;SDS011;19292;51.532;7.650;2024-03-07T00:00:07;27.10;;;16.95;;
32934;SDS011;19292;51.532;7.650;2024-03-07T00:02:46;24.75;;;16.23;;
32934;SDS011;19292;51.532;7.650;2024-03-07T00:05:18;22.17;;;13.88;;
32934;SDS011;19292;51.532;7.650;2024-03-07T00:07:45;18.98;;;12.85;;
32934;SDS011;19292;51.532;7.650;2024-03-07T00:10:11;23.92;;;15.23;;
32934;SDS011;19292;51.532;7.650;2024-03-07T00:12:42;24.65;;;12.35;;
32934;SDS011;19292;51.532;7.650;2024-03-07T00:15:15;21.77;;;12.93;;
32934;SDS011;19292;51.532;7.650;2024-03-07T00:17:43;23.17;;;14.25;;
32934;SDS011;19292;51.532;7.650;2024-03-07T00:20:11;13.68;;;9.05;;
32934;SDS011;19292;51.532;7.650;2024-03-07T00:22:39;20.48;;;14.02;;
32934;SDS011;19292;51.532;7.650;2024-03-07T00:25:06;21.50;;;13.68;;
32934;SDS011;19292;51.532;7.650;2024-03-07T00:27:32;28.08;;;13.52;;
32934;SDS011;19292;51.532;7.650;2024-03-07T00:30:00;25.15;;;16.88;;
32934;SDS011;19292;51.532;7.650;2024-03-07T00:32:26;27.02;;;16.38;;
32934;SDS011;19292;51.532;7.650;2024-03-07T00:34:54;19.33;;;15.13;;
32934;SDS011;19292;51.532;7.650;2024-03-07T00:37:24;25.83;;;17.52;;
32934;SDS011;19292;51.532;7.650;2024-03-07T00:39:52;22.90;;;13.50;;
32934;SDS011;19292;51.532;7.650;2024-03-07T00:42:17;21.27;;;13.75;;
32934;SDS011;19292;51.532;7.650;2024-03-07T00:44:45;17.77;;;13.77;;
32934;SDS011;19292;51.532;7.650;2024-03-07T00:47:14;21.80;;;13.77;;
32934;SDS011;19292;51.532;7.650;2024-03-07T00:49:45;26.05;;;17.10;;
32934;SDS011;19292;51.532;7.650;2024-03-07T00:52:11;24.45;;;17.00;;
32934;SDS011;19292;51.532;7.650;2024-03-07T00:54:39;33.58;;;22.95;;
32934;SDS011;19292;51.532;7.650;2024-03-07T00:57:04;28.45;;;24.75;;
32934;SDS011;19292;51.532;7.650;2024-03-07T00:59:29;26.40;;;22.95;;
32934;SDS011;19292;51.532;7.650;2024-03-07T01:02:00;25.00;;;22.35;;
32934;SDS011;19292;51.532;7.650;2024-03-07T01:04:28;31.33;;;25.50;;
32934;SDS011;19292;51.532;7.650;2024-03-07T01:06:58;28.52;;;23.85;;
32934;SDS011;19292;51.532;7.650;2024-03-07T01:09:24;27.77;;;24.60;;
32934;SDS011;19292;51.532;7.650;2024-03-07T01:11:49;27.20;;;21.98;;
32934;SDS011;19292;51.532;7.650;2024-03-07T01:14:15;31.00;;;23.67;;
32934;SDS011;19292;51.532;7.650;2024-03-07T01:16:43;24.02;;;20.58;;
32934;SDS011;19292;51.532;7.650;2024-03-07T01:19:10;21.17;;;19.05;;
32934;SDS011;19292;51.532;7.650;2024-03-07T01:21:36;21.70;;;19.38;;
32934;SDS011;19292;51.532;7.650;2024-03-07T01:24:03;25.40;;;21.48;;
32934;SDS011;19292;51.532;7.650;2024-03-07T01:26:29;21.35;;;19.02;;
32934;SDS011;19292;51.532;7.650;2024-03-07T01:28:55;24.52;;;20.95;;
32934;SDS011;19292;51.532;7.650;2024-03-07T01:31:22;23.15;;;20.75;;
32934;SDS011;19292;51.532;7.650;2024-03-07T01:33:48;23.80;;;17.73;;
32934;SDS011;19292;51.532;7.650;2024-03-07T01:36:18;27.02;;;20.10;;
32934;SDS011;19292;51.532;7.650;2024-03-07T01:38:44;21.00;;;18.55;;
32934;SDS011;19292;51.532;7.650;2024-03-07T01:41:09;23.30;;;19.58;;
32934;SDS011;19292;51.532;7.650;2024-03-07T01:43:37;24.50;;;21.92;;
32934;SDS011;19292;51.532;7.650;2024-03-07T01:46:02;23.95;;;21.48;;
32934;SDS011;19292;51.532;7.650;2024-03-07T01:48:32;21.83;;;19.63;;
32934;SDS011;19292;51.532;7.650;2024-03-07T01:51:01;23.48;;;21.42;;
32934;SDS011;19292;51.532;7.650;2024-03-07T01:53:28;26.88;;;19.85;;
32934;SDS011;19292;51.532;7.650;2024-03-07T01:55:57;22.60;;;19.00;;
32934;SDS011;19292;51.532;7.650;2024-03-07T01:58:23;26.08;;;18.52;;
32934;SDS011;19292;51.532;7.650;2024-03-07T02:00:54;19.13;;;17.13;;
32934;SDS011;19292;51.532;7.650;2024-03-07T02:03:19;18.08;;;16.40;;
32934;SDS011;19292;51.532;7.650;2024-03-07T02:05:44;20.92;;;15.60;;
32934;SDS011;19292;51.532;7.650;2024-03-07T02:08:15;20.85;;;17.75;;
32934;SDS011;19292;51.532;7.650;2024-03-07T02:10:41;21.83;;;16.27;;
32934;SDS011;19292;51.532;7.650;2024-03-07T02:13:07;20.70;;;15.35;;
32934;SDS011;19292;51.532;7.650;2024-03-07T02:15:32;18.05;;;16.20;;
32934;SDS011;19292;51.532;7.650;2024-03-07T02:17:58;16.95;;;12.90;;
32934;SDS011;19292;51.532;7.650;2024-03-07T02:20:23;19.38;;;13.45;;
32934;SDS011;19292;51.532;7.650;2024-03-07T02:22:48;17.80;;;12.93;;
32934;SDS011;19292;51.532;7.650;2024-03-07T02:25:15;13.68;;;10.20;;
32934;SDS011;19292;51.532;7.650;2024-03-07T02:27:43;17.83;;;10.02;;
32934;SDS011;19292;51.532;7.650;2024-03-07T02:30:10;23.40;;;10.35;;
32934;SDS011;19292;51.532;7.650;2024-03-07T02:32:37;23.70;;;10.05;;
32934;SDS011;19292;51.532;7.650;2024-03-07T02:35:03;15.95;;;9.75;;
32934;SDS011;19292;51.532;7.650;2024-03-07T02:37:29;19.63;;;10.50;;
32934;SDS011;19292;51.532;7.650;2024-03-07T02:39:55;17.50;;;9.55;;
32934;SDS011;19292;51.532;7.650;2024-03-07T02:42:22;14.38;;;8.15;;
32934;SDS011;19292;51.532;7.650;2024-03-07T02:44:47;15.45;;;8.98;;
32934;SDS011;19292;51.532;7.650;2024-03-07T02:47:13;17.50;;;7.88;;
32934;SDS011;19292;51.532;7.650;2024-03-07T02:49:38;14.82;;;9.25;;
32934;SDS011;19292;51.532;7.650;2024-03-07T02:52:06;22.20;;;11.07;;
32934;SDS011;19292;51.532;7.650;2024-03-07T02:54:33;16.10;;;11.50;;
32934;SDS011;19292;51.532;7.650;2024-03-07T02:56:59;19.10;;;11.48;;
32934;SDS011;19292;51.532;7.650;2024-03-07T02:59:24;14.23;;;8.93;;
32934;SDS011;19292;51.532;7.650;2024-03-07T03:01:49;18.92;;;10.75;;
32934;SDS011;19292;51.532;7.650;2024-03-07T03:04:15;12.52;;;7.38;;
32934;SDS011;19292;51.532;7.650;2024-03-07T03:06:43;17.58;;;8.63;;
32934;SDS011;19292;51.532;7.650;2024-03-07T03:09:11;15.40;;;9.68;;
32934;SDS011;19292;51.532;7.650;2024-03-07T03:11:42;20.67;;;10.00;;
32934;SDS011;19292;51.532;7.650;2024-03-07T03:14:07;24.20;;;8.48;;
32934;SDS011;19292;51.532;7.650;2024-03-07T03:16:33;19.42;;;10.55;;
32934;SDS011;19292;51.532;7.650;2024-03-07T03:18:58;19.85;;;10.00;;
32934;SDS011;19292;51.532;7.650;2024-03-07T03:21:28;14.45;;;9.63;;
32934;SDS011;19292;51.532;7.650;2024-03-07T03:23:53;18.20;;;10.80;;
32934;SDS011;19292;51.532;7.650;2024-03-07T03:26:21;15.32;;;7.90;;
32934;SDS011;19292;51.532;7.650;2024-03-07T03:28:48;14.95;;;7.85;;
32934;SDS011;19292;51.532;7.650;2024-03-07T03:31:14;17.45;;;9.50;;
32934;SDS011;19292;51.532;7.650;2024-03-07T03:33:39;23.80;;;10.02;;
32934;SDS011;19292;51.532;7.650;2024-03-07T03:36:07;16.20;;;9.10;;
32934;SDS011;19292;51.532;7.650;2024-03-07T03:38:32;14.57;;;10.68;;
32934;SDS011;19292;51.532;7.650;2024-03-07T03:41:00;16.15;;;8.98;;
32934;SDS011;19292;51.532;7.650;2024-03-07T03:43:25;19.45;;;9.82;;
32934;SDS011;19292;51.532;7.650;2024-03-07T03:45:55;11.60;;;8.43;;
32934;SDS011;19292;51.532;7.650;2024-03-07T03:48:21;20.92;;;10.63;;
32934;SDS011;19292;51.532;7.650;2024-03-07T03:50:48;12.00;;;8.18;;
32934;SDS011;19292;51.532;7.650;2024-03-07T03:53:14;23.13;;;11.35;;
32934;SDS011;19292;51.532;7.650;2024-03-07T03:55:39;16.80;;;10.73;;
32934;SDS011;19292;51.532;7.650;2024-03-07T03:58:06;20.75;;;10.82;;
32934;SDS011;19292;51.532;7.650;2024-03-07T04:00:35;20.55;;;9.88;;
32934;SDS011;19292;51.532;7.650;2024-03-07T04:03:00;18.92;;;9.70;;
32934;SDS011;19292;51.532;7.650;2024-03-07T04:05:26;14.80;;;8.35;;
32934;SDS011;19292;51.532;7.650;2024-03-07T04:07:51;11.57;;;8.05;;
32934;SDS011;19292;51.532;7.650;2024-03-07T04:10:19;16.00;;;9.15;;
32934;SDS011;19292;51.532;7.650;2024-03-07T04:12:45;16.70;;;9.35;;
32934;SDS011;19292;51.532;7.650;2024-03-07T04:15:11;17.33;;;10.05;;
32934;SDS011;19292;51.532;7.650;2024-03-07T04:17:38;12.73;;;8.27;;
32934;SDS011;19292;51.532;7.650;2024-03-07T04:20:06;19.30;;;9.55;;
32934;SDS011;19292;51.532;7.650;2024-03-07T04:22:35;15.05;;;8.48;;
32934;SDS011;19292;51.532;7.650;2024-03-07T04:25:04;11.35;;;8.00;;
32934;SDS011;19292;51.532;7.650;2024-03-07T04:27:31;13.75;;;8.15;;
32934;SDS011;19292;51.532;7.650;2024-03-07T04:30:01;15.05;;;8.88;;
32934;SDS011;19292;51.532;7.650;2024-03-07T04:32:28;16.30;;;7.88;;
32934;SDS011;19292;51.532;7.650;2024-03-07T04:34:56;20.08;;;9.40;;
32934;SDS011;19292;51.532;7.650;2024-03-07T04:37:25;16.48;;;11.05;;
32934;SDS011;19292;51.532;7.650;2024-03-07T04:39:53;17.60;;;9.80;;
32934;SDS011;19292;51.532;7.650;2024-03-07T04:42:21;9.25;;;6.47;;
32934;SDS011;19292;51.532;7.650;2024-03-07T04:44:46;22.23;;;8.75;;
32934;SDS011;19292;51.532;7.650;2024-03-07T04:47:11;11.77;;;7.25;;
32934;SDS011;19292;51.532;7.650;2024-03-07T04:49:37;12.10;;;9.02;;
32934;SDS011;19292;51.532;7.650;2024-03-07T04:52:02;16.80;;;8.63;;
32934;SDS011;19292;51.532;7.650;2024-03-07T04:54:29;11.57;;;7.65;;
32934;SDS011;19292;51.532;7.650;2024-03-07T04:56:55;11.32;;;7.95;;
32934;SDS011;19292;51.532;7.650;2024-03-07T04:59:23;8.70;;;6.78;;
32934;SDS011;19292;51.532;7.650;2024-03-07T05:01:51;17.27;;;7.47;;
32934;SDS011;19292;51.532;7.650;2024-03-07T05:04:18;12.13;;;7.45;;
32934;SDS011;19292;51.532;7.650;2024-03-07T05:06:48;12.10;;;7.47;;
32934;SDS011;19292;51.532;7.650;2024-03-07T05:09:18;14.73;;;7.90;;
32934;SDS011;19292;51.532;7.650;2024-03-07T05:11:53;11.18;;;8.80;;
32934;SDS011;19292;51.532;7.650;2024-03-07T05:14:19;10.85;;;6.47;;
32934;SDS011;19292;51.532;7.650;2024-03-07T05:16:47;14.13;;;10.10;;
32934;SDS011;19292;51.532;7.650;2024-03-07T05:19:29;15.38;;;7.93;;
32934;SDS011;19292;51.532;7.650;2024-03-07T05:22:03;13.85;;;8.10;;
32934;SDS011;19292;51.532;7.650;2024-03-07T05:24:32;16.50;;;8.73;;
32934;SDS011;19292;51.532;7.650;2024-03-07T05:27:02;14.57;;;7.68;;
32934;SDS011;19292;51.532;7.650;2024-03-07T05:29:28;14.02;;;7.22;;
32934;SDS011;19292;51.532;7.650;2024-03-07T05:31:53;16.55;;;8.05;;
32934;SDS011;19292;51.532;7.650;2024-03-07T05:34:21;12.85;;;8.15;;
32934;SDS011;19292;51.532;7.650;2024-03-07T05:36:49;15.20;;;8.27;;
32934;SDS011;19292;51.532;7.650;2024-03-07T05:39:17;17.77;;;9.95;;
32934;SDS011;19292;51.532;7.650;2024-03-07T05:41:44;11.43;;;7.80;;
32934;SDS011;19292;51.532;7.650;2024-03-07T05:44:10;14.10;;;7.25;;
32934;SDS011;19292;51.532;7.650;2024-03-07T05:46:39;23.13;;;7.85;;
32934;SDS011;19292;51.532;7.650;2024-03-07T05:49:14;11.95;;;9.40;;
32934;SDS011;19292;51.532;7.650;2024-03-07T05:51:42;18.20;;;9.05;;
32934;SDS011;19292;51.532;7.650;2024-03-07T05:54:10;11.32;;;7.57;;
32934;SDS011;19292;51.532;7.650;2024-03-07T05:56:41;11.30;;;8.18;;
32934;SDS011;19292;51.532;7.650;2024-03-07T05:59:07;23.33;;;9.40;;
32934;SDS011;19292;51.532;7.650;2024-03-07T06:01:35;13.02;;;6.70;;
32934;SDS011;19292;51.532;7.650;2024-03-07T06:04:02;10.52;;;7.38;;
32934;SDS011;19292;51.532;7.650;2024-03-07T06:06:30;16.27;;;9.52;;
32934;SDS011;19292;51.532;7.650;2024-03-07T06:09:00;12.05;;;7.68;;
32934;SDS011;19292;51.532;7.650;2024-03-07T06:11:28;11.43;;;7.15;;
32934;SDS011;19292;51.532;7.650;2024-03-07T06:13:58;10.40;;;7.13;;
32934;SDS011;19292;51.532;7.650;2024-03-07T06:16:26;15.40;;;8.98;;
32934;SDS011;19292;51.532;7.650;2024-03-07T06:18:51;14.18;;;9.57;;
32934;SDS011;19292;51.532;7.650;2024-03-07T06:21:17;16.42;;;9.45;;
32934;SDS011;19292;51.532;7.650;2024-03-07T06:23:43;13.70;;;8.10;;
32934;SDS011;19292;51.532;7.650;2024-03-07T06:26:12;13.15;;;8.50;;
32934;SDS011;19292;51.532;7.650;2024-03-07T06:28:41;13.20;;;9.60;;
32934;SDS011;19292;51.532;7.650;2024-03-07T06:31:07;14.88;;;8.82;;
32934;SDS011;19292;51.532;7.650;2024-03-07T06:33:34;18.08;;;11.70;;
32934;SDS011;19292;51.532;7.650;2024-03-07T06:36:02;19.33;;;10.60;;
32934;SDS011;19292;51.532;7.650;2024-03-07T06:38:27;12.57;;;8.93;;
32934;SDS011;19292;51.532;7.650;2024-03-07T06:40:55;10.98;;;9.23;;
32934;SDS011;19292;51.532;7.650;2024-03-07T06:43:20;19.27;;;10.00;;
32934;SDS011;19292;51.532;7.650;2024-03-07T06:45:47;15.55;;;10.07;;
32934;SDS011;19292;51.532;7.650;2024-03-07T06:48:14;15.85;;;8.60;;
32934;SDS011;19292;51.532;7.650;2024-03-07T06:50:40;16.55;;;11.13;;
32934;SDS011;19292;51.532;7.650;2024-03-07T06:53:10;13.52;;;8.13;;
32934;SDS011;19292;51.532;7.650;2024-03-07T06:55:38;17.17;;;9.18;;
32934;SDS011;19292;51.532;7.650;2024-03-07T06:58:03;12.73;;;9.13;;
32934;SDS011;19292;51.532;7.650;2024-03-07T07:00:33;11.85;;;10.05;;
32934;SDS011;19292;51.532;7.650;2024-03-07T07:03:03;12.98;;;7.43;;
32934;SDS011;19292;51.532;7.650;2024-03-07T07:05:32;21.55;;;11.63;;
32934;SDS011;19292;51.532;7.650;2024-03-07T07:08:04;23.00;;;13.15;;
32934;SDS011;19292;51.532;7.650;2024-03-07T07:10:29;11.90;;;9.63;;
32934;SDS011;19292;51.532;7.650;2024-03-07T07:12:57;17.95;;;9.48;;
32934;SDS011;19292;51.532;7.650;2024-03-07T07:15:22;19.92;;;12.20;;
32934;SDS011;19292;51.532;7.650;2024-03-07T07:17:51;12.80;;;10.20;;
32934;SDS011;19292;51.532;7.650;2024-03-07T07:20:20;20.10;;;10.82;;
32934;SDS011;19292;51.532;7.650;2024-03-07T07:22:51;16.83;;;10.90;;
32934;SDS011;19292;51.532;7.650;2024-03-07T07:25:18;18.55;;;9.93;;
32934;SDS011;19292;51.532;7.650;2024-03-07T07:27:49;17.38;;;10.95;;
32934;SDS011;19292;51.532;7.650;2024-03-07T07:30:19;17.45;;;11.85;;
32934;SDS011;19292;51.532;7.650;2024-03-07T07:32:50;16.42;;;11.88;;
32934;SDS011;19292;51.532;7.650;2024-03-07T07:35:21;14.75;;;9.40;;
32934;SDS011;19292;51.532;7.650;2024-03-07T07:37:51;14.98;;;10.93;;
32934;SDS011;19292;51.532;7.650;2024-03-07T07:42:48;15.63;;;9.95;;
32934;SDS011;19292;51.532;7.650;2024-03-07T07:45:18;28.05;;;8.70;;
32934;SDS011;19292;51.532;7.650;2024-03-07T07:47:48;20.80;;;9.43;;
32934;SDS011;19292;51.532;7.650;2024-03-07T07:50:17;13.98;;;10.15;;
32934;SDS011;19292;51.532;7.650;2024-03-07T07:52:47;12.02;;;7.63;;
32934;SDS011;19292;51.532;7.650;2024-03-07T07:55:28;14.13;;;7.15;;
32934;SDS011;19292;51.532;7.650;2024-03-07T07:57:57;15.98;;;9.45;;
32934;SDS011;19292;51.532;7.650;2024-03-07T08:00:29;15.75;;;9.43;;
32934;SDS011;19292;51.532;7.650;2024-03-07T08:05:24;13.43;;;8.90;;
32934;SDS011;19292;51.532;7.650;2024-03-07T08:07:53;10.23;;;8.77;;
32934;SDS011;19292;51.532;7.650;2024-03-07T08:10:23;13.18;;;8.88;;
32934;SDS011;19292;51.532;7.650;2024-03-07T08:12:49;12.05;;;8.48;;
32934;SDS011;19292;51.532;7.650;2024-03-07T08:15:15;16.25;;;10.05;;
32934;SDS011;19292;51.532;7.650;2024-03-07T08:17:44;14.50;;;8.73;;
32934;SDS011;19292;51.532;7.650;2024-03-07T08:20:11;20.75;;;9.07;;
32934;SDS011;19292;51.532;7.650;2024-03-07T08:22:40;15.52;;;12.57;;
32934;SDS011;19292;51.532;7.650;2024-03-07T08:25:12;15.65;;;8.45;;
32934;SDS011;19292;51.532;7.650;2024-03-07T08:27:44;15.73;;;6.97;;
32934;SDS011;19292;51.532;7.650;2024-03-07T08:30:13;18.13;;;10.13;;
32934;SDS011;19292;51.532;7.650;2024-03-07T08:35:05;13.45;;;11.48;;
32934;SDS011;19292;51.532;7.650;2024-03-07T08:37:47;16.15;;;8.63;;
32934;SDS011;19292;51.532;7.650;2024-03-07T08:40:31;19.05;;;10.18;;
32934;SDS011;19292;51.532;7.650;2024-03-07T08:43:01;8.85;;;7.68;;
32934;SDS011;19292;51.532;7.650;2024-03-07T08:45:32;13.05;;;10.00;;
32934;SDS011;19292;51.532;7.650;2024-03-07T08:48:02;11.52;;;9.32;;
32934;SDS011;19292;51.532;7.650;2024-03-07T08:50:33;14.90;;;10.35;;
32934;SDS011;19292;51.532;7.650;2024-03-07T08:52:59;15.23;;;10.57;;
32934;SDS011;19292;51.532;7.650;2024-03-07T08:55:25;14.52;;;10.15;;
32934;SDS011;19292;51.532;7.650;2024-03-07T08:57:51;16.73;;;10.73;;
32934;SDS011;19292;51.532;7.650;2024-03-07T09:00:18;19.30;;;16.70;;
32934;SDS011;19292;51.532;7.650;2024-03-07T09:02:50;15.70;;;11.82;;
32934;SDS011;19292;51.532;7.650;2024-03-07T09:05:25;17.42;;;10.57;;
32934;SDS011;19292;51.532;7.650;2024-03-07T09:07:51;14.25;;;9.68;;
32934;SDS011;19292;51.532;7.650;2024-03-07T09:10:21;12.50;;;9.10;;
32934;SDS011;19292;51.532;7.650;2024-03-07T09:12:50;11.73;;;9.02;;
32934;SDS011;19292;51.532;7.650;2024-03-07T09:15:19;13.75;;;10.13;;
32934;SDS011;19292;51.532;7.650;2024-03-07T09:17:47;14.95;;;9.60;;
32934;SDS011;19292;51.532;7.650;2024-03-07T09:20:13;11.57;;;9.25;;
32934;SDS011;19292;51.532;7.650;2024-03-07T09:22:41;12.52;;;9.85;;
32934;SDS011;19292;51.532;7.650;2024-03-07T09:25:12;14.02;;;8.43;;
32934;SDS011;19292;51.532;7.650;2024-03-07T09:27:44;18.77;;;10.75;;
32934;SDS011;19292;51.532;7.650;2024-03-07T09:30:09;21.15;;;11.93;;
32934;SDS011;19292;51.532;7.650;2024-03-07T09:32:40;13.95;;;9.73;;
32934;SDS011;19292;51.532;7.650;2024-03-07T09:35:08;15.15;;;10.50;;
32934;SDS011;19292;51.532;7.650;2024-03-07T09:37:41;11.73;;;9.95;;
32934;SDS011;19292;51.532;7.650;2024-03-07T09:40:10;9.77;;;8.77;;
32934;SDS011;19292;51.532;7.650;2024-03-07T09:42:37;16.30;;;10.98;;
32934;SDS011;19292;51.532;7.650;2024-03-07T09:45:10;15.65;;;8.68;;
32934;SDS011;19292;51.532;7.650;2024-03-07T09:47:42;12.07;;;9.32;;
32934;SDS011;19292;51.532;7.650;2024-03-07T09:50:11;12.30;;;8.45;;
32934;SDS011;19292;51.532;7.650;2024-03-07T09:52:36;12.40;;;8.93;;
32934;SDS011;19292;51.532;7.650;2024-03-07T09:55:06;14.95;;;9.50;;
32934;SDS011;19292;51.532;7.650;2024-03-07T09:57:33;16.65;;;11.00;;
32934;SDS011;19292;51.532;7.650;2024-03-07T09:59:59;19.30;;;10.77;;
32934;SDS011;19292;51.532;7.650;2024-03-07T10:02:27;16.33;;;8.27;;
32934;SDS011;19292;51.532;7.650;2024-03-07T10:04:54;16.27;;;8.65;;
32934;SDS011;19292;51.532;7.650;2024-03-07T10:07:24;13.88;;;8.50;;
32934;SDS011;19292;51.532;7.650;2024-03-07T10:09:50;14.13;;;7.78;;
32934;SDS011;19292;51.532;7.650;2024-03-07T10:12:18;9.98;;;7.30;;
32934;SDS011;19292;51.532;7.650;2024-03-07T10:14:50;17.10;;;10.65;;
32934;SDS011;19292;51.532;7.650;2024-03-07T10:17:16;13.90;;;9.30;;
32934;SDS011;19292;51.532;7.650;2024-03-07T10:19:46;15.15;;;7.25;;
32934;SDS011;19292;51.532;7.650;2024-03-07T10:22:15;11.43;;;6.97;;
32934;SDS011;19292;51.532;7.650;2024-03-07T10:25:16;16.58;;;7.25;;
32934;SDS011;19292;51.532;7.650;2024-03-07T10:27:36;15.13;;;7.57;;
32934;SDS011;19292;51.532;7.650;2024-03-07T10:30:04;13.75;;;7.07;;
32934;SDS011;19292;51.532;7.650;2024-03-07T10:32:35;13.15;;;8.68;;
32934;SDS011;19292;51.532;7.650;2024-03-07T10:35:03;14.25;;;10.02;;
32934;SDS011;19292;51.532;7.650;2024-03-07T10:37:34;14.93;;;8.65;;
32934;SDS011;19292;51.532;7.650;2024-03-07T10:40:03;14.70;;;9.38;;
32934;SDS011;19292;51.532;7.650;2024-03-07T10:42:40;13.80;;;8.35;;
32934;SDS011;19292;51.532;7.650;2024-03-07T10:45:18;18.75;;;9.77;;
32934;SDS011;19292;51.532;7.650;2024-03-07T10:47:49;15.52;;;8.30;;
32934;SDS011;19292;51.532;7.650;2024-03-07T10:50:43;13.55;;;8.88;;
32934;SDS011;19292;51.532;7.650;2024-03-07T10:53:44;13.13;;;7.63;;
32934;SDS011;19292;51.532;7.650;2024-03-07T10:56:24;18.63;;;10.75;;
32934;SDS011;19292;51.532;7.650;2024-03-07T10:58:59;10.90;;;7.35;;
32934;SDS011;19292;51.532;7.650;2024-03-07T11:01:30;12.38;;;8.15;;
32934;SDS011;19292;51.532;7.650;2024-03-07T11:03:56;17.00;;;9.98;;
32934;SDS011;19292;51.532;7.650;2024-03-07T11:06:22;16.75;;;9.35;;
32934;SDS011;19292;51.532;7.650;2024-03-07T11:08:51;13.63;;;9.15;;
32934;SDS011;19292;51.532;7.650;2024-03-07T11:11:19;14.95;;;7.35;;
32934;SDS011;19292;51.532;7.650;2024-03-07T11:13:48;11.38;;;8.70;;
32934;SDS011;19292;51.532;7.650;2024-03-07T11:16:18;10.57;;;7.72;;
32934;SDS011;19292;51.532;7.650;2024-03-07T11:21:55;11.32;;;7.80;;
32934;SDS011;19292;51.532;7.650;2024-03-07T11:24:28;13.15;;;8.18;;
32934;SDS011;19292;51.532;7.650;2024-03-07T11:26:59;12.57;;;8.90;;
32934;SDS011;19292;51.532;7.650;2024-03-07T11:29:39;14.68;;;7.85;;
32934;SDS011;19292;51.532;7.650;2024-03-07T11:32:14;15.85;;;12.00;;
32934;SDS011;19292;51.532;7.650;2024-03-07T11:34:41;14.43;;;12.85;;
32934;SDS011;19292;51.532;7.650;2024-03-07T11:37:18;18.65;;;16.58;;
32934;SDS011;19292;51.532;7.650;2024-03-07T11:39:47;13.70;;;12.30;;
32934;SDS011;19292;51.532;7.650;2024-03-07T11:44:53;11.30;;;10.23;;
32934;SDS011;19292;51.532;7.650;2024-03-07T11:47:23;20.45;;;9.88;;
32934;SDS011;19292;51.532;7.650;2024-03-07T11:49:49;13.27;;;10.32;;
32934;SDS011;19292;51.532;7.650;2024-03-07T11:52:17;15.80;;;8.82;;
32934;SDS011;19292;51.532;7.650;2024-03-07T11:54:45;11.00;;;6.18;;
32934;SDS011;19292;51.532;7.650;2024-03-07T11:57:17;14.77;;;7.82;;
32934;SDS011;19292;51.532;7.650;2024-03-07T11:59:44;9.95;;;7.90;;
32934;SDS011;19292;51.532;7.650;2024-03-07T12:02:13;13.07;;;8.85;;
32934;SDS011;19292;51.532;7.650;2024-03-07T12:04:42;12.30;;;6.13;;
32934;SDS011;19292;51.532;7.650;2024-03-07T12:07:08;11.45;;;7.68;;
32934;SDS011;19292;51.532;7.650;2024-03-07T12:09:37;12.52;;;6.30;;
32934;SDS011;19292;51.532;7.650;2024-03-07T12:12:03;9.25;;;6.20;;
32934;SDS011;19292;51.532;7.650;2024-03-07T12:14:35;8.20;;;4.90;;
32934;SDS011;19292;51.532;7.650;2024-03-07T12:17:06;9.90;;;5.80;;
32934;SDS011;19292;51.532;7.650;2024-03-07T12:19:34;10.88;;;5.70;;
32934;SDS011;19292;51.532;7.650;2024-03-07T12:33:53;9.18;;;6.13;;
32934;SDS011;19292;51.532;7.650;2024-03-07T12:36:18;10.50;;;6.70;;
32934;SDS011;19292;51.532;7.650;2024-03-07T12:38:47;6.47;;;4.93;;
32934;SDS011;19292;51.532;7.650;2024-03-07T12:41:18;10.38;;;6.25;;
32934;SDS011;19292;51.532;7.650;2024-03-07T12:43:47;10.95;;;6.28;;
32934;SDS011;19292;51.532;7.650;2024-03-07T12:46:12;13.63;;;6.40;;
32934;SDS011;19292;51.532;7.650;2024-03-07T12:48:45;13.13;;;5.57;;
32934;SDS011;19292;51.532;7.650;2024-03-07T12:51:12;14.00;;;5.53;;
32934;SDS011;19292;51.532;7.650;2024-03-07T12:53:44;6.47;;;5.03;;
32934;SDS011;19292;51.532;7.650;2024-03-07T12:56:10;9.02;;;5.97;;
32934;SDS011;19292;51.532;7.650;2024-03-07T12:58:41;16.83;;;6.32;;
32934;SDS011;19292;51.532;7.650;2024-03-07T13:01:10;9.23;;;6.28;;
32934;SDS011;19292;51.532;7.650;2024-03-07T13:03:36;7.15;;;5.88;;
32934;SDS011;19292;51.532;7.650;2024-03-07T13:06:06;8.90;;;5.90;;
32934;SDS011;19292;51.532;7.650;2024-03-07T13:08:31;8.70;;;5.40;;
32934;SDS011;19292;51.532;7.650;2024-03-07T13:11:00;8.50;;;5.35;;
32934;SDS011;19292;51.532;7.650;2024-03-07T13:13:28;13.18;;;6.45;;
32934;SDS011;19292;51.532;7.650;2024-03-07T13:15:53;17.83;;;6.07;;
32934;SDS011;19292;51.532;7.650;2024-03-07T13:18:19;11.68;;;7.05;;
32934;SDS011;19292;51.532;7.650;2024-03-07T13:20:47;10.25;;;5.45;;
32934;SDS011;19292;51.532;7.650;2024-03-07T13:23:15;10.45;;;5.75;;
32934;SDS011;19292;51.532;7.650;2024-03-07T13:25:40;8.00;;;6.30;;
32934;SDS011;19292;51.532;7.650;2024-03-07T13:28:11;10.27;;;5.90;;
32934;SDS011;19292;51.532;7.650;2024-03-07T13:30:43;6.47;;;4.38;;
32934;SDS011;19292;51.532;7.650;2024-03-07T13:33:09;8.18;;;5.25;;
32934;SDS011;19292;51.532;7.650;2024-03-07T13:35:37;9.02;;;5.15;;
32934;SDS011;19292;51.532;7.650;2024-03-07T13:38:03;11.60;;;6.70;;
32934;SDS011;19292;51.532;7.650;2024-03-07T13:40:31;10.05;;;6.63;;
32934;SDS011;19292;51.532;7.650;2024-03-07T13:43:00;8.00;;;5.22;;
32934;SDS011;19292;51.532;7.650;2024-03-07T13:45:29;13.75;;;8.23;;
32934;SDS011;19292;51.532;7.650;2024-03-07T13:48:06;11.93;;;6.25;;
32934;SDS011;19292;51.532;7.650;2024-03-07T13:50:33;8.60;;;6.22;;
32934;SDS011;19292;51.532;7.650;2024-03-07T13:52:59;12.73;;;7.28;;
32934;SDS011;19292;51.532;7.650;2024-03-07T13:58:23;9.93;;;7.05;;
32934;SDS011;19292;51.532;7.650;2024-03-07T14:13:04;10.15;;;6.95;;
32934;SDS011;19292;51.532;7.650;2024-03-07T14:16:21;10.55;;;6.57;;
32934;SDS011;19292;51.532;7.650;2024-03-07T14:27:26;8.88;;;6.65;;
32934;SDS011;19292;51.532;7.650;2024-03-07T14:32:34;12.48;;;7.65;;
32934;SDS011;19292;51.532;7.650;2024-03-07T14:38:01;8.75;;;7.07;;
32934;SDS011;19292;51.532;7.650;2024-03-07T14:40:33;9.00;;;6.20;;
32934;SDS011;19292;51.532;7.650;2024-03-07T14:43:00;14.52;;;8.25;;
32934;SDS011;19292;51.532;7.650;2024-03-07T14:45:31;18.10;;;7.47;;
32934;SDS011;19292;51.532;7.650;2024-03-07T14:48:03;14.27;;;8.23;;
32934;SDS011;19292;51.532;7.650;2024-03-07T14:50:34;13.00;;;7.82;;
32934;SDS011;19292;51.532;7.650;2024-03-07T14:53:00;9.23;;;7.63;;
32934;SDS011;19292;51.532;7.650;2024-03-07T14:55:26;13.23;;;7.10;;
32934;SDS011;19292;51.532;7.650;2024-03-07T14:57:53;15.55;;;7.55;;
32934;SDS011;19292;51.532;7.650;2024-03-07T15:00:19;12.27;;;6.10;;
32934;SDS011;19292;51.532;7.650;2024-03-07T15:02:52;12.38;;;8.18;;
32934;SDS011;19292;51.532;7.650;2024-03-07T15:05:21;8.85;;;5.28;;
32934;SDS011;19292;51.532;7.650;2024-03-07T15:07:52;14.23;;;9.35;;
32934;SDS011;19292;51.532;7.650;2024-03-07T15:10:22;8.98;;;7.18;;
32934;SDS011;19292;51.532;7.650;2024-03-07T15:12:51;11.75;;;7.32;;
32934;SDS011;19292;51.532;7.650;2024-03-07T15:15:19;14.43;;;7.13;;
32934;SDS011;19292;51.532;7.650;2024-03-07T15:17:49;12.18;;;7.00;;
32934;SDS011;19292;51.532;7.650;2024-03-07T15:20:19;12.80;;;6.15;;
32934;SDS011;19292;51.532;7.650;2024-03-07T15:22:58;11.35;;;6.72;;
32934;SDS011;19292;51.532;7.650;2024-03-07T15:25:28;11.05;;;6.72;;
32934;SDS011;19292;51.532;7.650;2024-03-07T15:27:55;14.48;;;7.53;;
32934;SDS011;19292;51.532;7.650;2024-03-07T15:30:24;13.35;;;7.97;;
32934;SDS011;19292;51.532;7.650;2024-03-07T15:32:59;13.27;;;6.63;;